CheckWX is a tool to help pilots better visualize weather data.  It is not intended as a substitute for an official pre-flight weather briefing.

16:13:52 UTC

KGLW METAR
Glasgow Municipal Airport
Glasgow, Kentucky, USA
Current

19 mins ago

KGLW 231555Z AUTO 13003KT 10SM OVC095 07/M07 A3017 RMK AO2 T00671068
Observed
Jan-23 @ 15:55 UTC
Wind
  • 130° at 3 KTS
Visibility
10 SM
Flight Rules
VFR
Cloud Levels
  • Overcast at 9,500' AGL
Temperature
C / 45°F
Dewpoint
-7°C / 19°F
Humidity
37%
Altimeter
30.17" Hg
Pressure
1021.72 hPa
Previous

39 mins ago

KGLW 231535Z AUTO 00000KT 10SM OVC095 06/M07 A3018 RMK AO2 T00621075
Observed
Jan-23 @ 15:35 UTC
Visibility
10 SM
Flight Rules
VFR
Cloud Levels
  • Overcast at 9,500' AGL
Temperature
C / 43°F
Dewpoint
-8°C / 18°F
Humidity
36%
Altimeter
30.18" Hg
Pressure
1022.02 hPa
Previous

59 mins ago

KGLW 231515Z AUTO 15003KT 10SM OVC095 06/M08 A3018 RMK AO2 T00611076
Observed
Jan-23 @ 15:15 UTC
Wind
  • 150° at 3 KTS
Visibility
10 SM
Flight Rules
VFR
Cloud Levels
  • Overcast at 9,500' AGL
Temperature
C / 43°F
Dewpoint
-8°C / 18°F
Humidity
36%
Altimeter
30.18" Hg
Pressure
1022.02 hPa